Raco, Michigan
Current Conditions -  °F | °C
As of 10:00 PM on Thursday 27 Nov 2014 (Local Time) from CYAM Reporting Station
Few Clouds Few Clouds  
Wind Chill: -5°   Ceiling: Unl
Heat Index:   Visibility: 15mi
Dew Point:   Wind: 9mph
Humidity: 73%   Direction: 50°NE
Pressure: 30.27"   Gusts: NA
Location:  46.4104°N, 84.5584°W
Report Text: CYAM 280300Z 05008KT 15SM FEW022 M13/M17 A3027 RMK SC2 SLP267
Loading
Personal Weather Stations






























Interactive Weather Map New forecast layout! Learn more

10-Day Weather Forecast

Advertisements
Track Severe Weather on mobile